createdAt,value
2018-08-04T00:00:36.811Z,52.80
2018-08-04T00:03:05.049Z,53.20
2018-08-04T00:05:33.309Z,53.20
2018-08-04T00:08:01.641Z,52.70
2018-08-04T00:10:29.884Z,53.00
2018-08-04T00:12:58.117Z,53.30
2018-08-04T00:15:26.370Z,52.80
2018-08-04T00:17:54.616Z,53.10
2018-08-04T00:20:22.878Z,53.20
2018-08-04T00:22:51.129Z,53.00
2018-08-04T00:25:19.372Z,52.60
2018-08-04T00:27:47.604Z,52.40
2018-08-04T00:30:16.053Z,51.70
2018-08-04T00:32:44.368Z,51.70
2018-08-04T00:35:13.032Z,52.00
2018-08-04T00:37:41.321Z,52.20
2018-08-04T00:40:12.693Z,52.20
2018-08-04T00:42:41.391Z,52.90
2018-08-04T00:45:09.629Z,52.30
2018-08-04T00:47:37.886Z,52.50
2018-08-04T00:50:07.890Z,53.50
2018-08-04T01:00:00.363Z,53.70
2018-08-04T01:02:28.679Z,53.80
2018-08-04T01:04:56.938Z,53.90
2018-08-04T01:07:25.154Z,54.10
2018-08-04T01:09:53.419Z,54.10
2018-08-04T01:12:21.684Z,54.40
2018-08-04T01:14:49.924Z,54.80
2018-08-04T01:17:18.198Z,54.80
2018-08-04T01:19:46.518Z,55.00
2018-08-04T01:22:14.742Z,55.30
2018-08-04T01:24:42.956Z,55.90
2018-08-04T01:27:11.185Z,55.50
2018-08-04T01:29:39.435Z,55.70
2018-08-04T01:32:07.687Z,55.90
2018-08-04T01:34:35.942Z,56.10
2018-08-04T01:37:04.166Z,56.30
2018-08-04T01:39:32.515Z,56.20
2018-08-04T01:42:00.764Z,56.50
2018-08-04T01:44:28.999Z,56.70
2018-08-04T01:46:57.236Z,56.60
2018-08-04T01:49:25.481Z,56.90
2018-08-04T01:51:53.717Z,57.00
2018-08-04T01:54:21.964Z,58.20
2018-08-04T01:59:18.214Z,58.00
2018-08-04T02:01:46.498Z,58.00
2018-08-04T02:04:14.713Z,58.00
2018-08-04T02:06:43.091Z,58.30
2018-08-04T02:09:11.698Z,58.00
2018-08-04T02:11:39.951Z,58.40
2018-08-04T02:14:08.197Z,58.60
2018-08-04T02:16:36.426Z,58.80
2018-08-04T02:19:04.649Z,59.20
2018-08-04T02:21:32.933Z,59.10
2018-08-04T02:24:01.142Z,59.30
2018-08-04T02:26:29.403Z,59.50
2018-08-04T02:28:57.620Z,60.00
2018-08-04T02:31:25.879Z,60.00
2018-08-04T02:33:54.133Z,60.20
2018-08-04T02:36:22.369Z,61.60
2018-08-04T02:38:50.613Z,60.20
2018-08-04T02:41:18.888Z,60.60
2018-08-04T02:43:47.153Z,60.40
2018-08-04T02:46:15.433Z,60.70
2018-08-04T02:48:43.803Z,61.90
2018-08-04T02:51:12.155Z,62.70
2018-08-04T02:53:40.639Z,62.70
2018-08-04T02:56:08.865Z,63.60
2018-08-04T03:01:05.095Z,63.60
2018-08-04T03:03:33.339Z,64.70
2018-08-04T03:06:01.566Z,64.20
2018-08-04T03:08:29.852Z,64.70
2018-08-04T03:13:25.977Z,65.70
2018-08-04T03:18:22.170Z,66.90
2018-08-04T03:20:50.400Z,66.90
2018-08-04T03:23:18.658Z,67.70
2018-08-04T03:25:46.938Z,67.50
2018-08-04T03:28:15.174Z,67.70
2018-08-04T03:30:43.709Z,67.50
2018-08-04T03:33:11.929Z,68.10
2018-08-04T03:35:40.168Z,68.20
2018-08-04T03:38:08.383Z,68.40
2018-08-04T03:40:36.626Z,68.90
2018-08-04T03:43:04.887Z,69.30
2018-08-04T03:45:33.133Z,68.80
2018-08-04T03:48:01.395Z,70.30
2018-08-04T03:50:29.621Z,70.10
2018-08-04T03:52:57.838Z,70.80
2018-08-04T03:55:26.207Z,70.70
2018-08-04T03:57:54.660Z,70.60
2018-08-04T04:05:18.839Z,71.70
2018-08-04T04:07:47.040Z,72.90
2018-08-04T04:10:15.486Z,73.10
2018-08-04T04:12:43.735Z,73.30
2018-08-04T04:15:11.967Z,74.20
2018-08-04T04:17:45.746Z,74.60
2018-08-04T04:20:14.259Z,74.30
2018-08-04T04:22:42.526Z,75.80
2018-08-04T04:25:10.858Z,77.50
2018-08-04T04:30:07.063Z,78.10
2018-08-04T04:32:35.366Z,78.70
2018-08-04T04:35:03.568Z,81.60
2018-08-04T04:37:31.816Z,81.30
2018-08-04T04:40:00.188Z,84.50
2018-08-04T04:42:28.574Z,85.70
2018-08-04T04:49:52.745Z,89.00
2018-08-04T04:52:21.001Z,87.10
2018-08-04T04:54:49.306Z,89.10
2018-08-04T04:57:17.552Z,90.00
2018-08-04T04:59:45.777Z,90.10
2018-08-04T05:02:14.060Z,90.80
2018-08-04T05:09:38.242Z,91.70
2018-08-04T05:12:06.487Z,92.40
2018-08-04T05:14:34.705Z,92.20
2018-08-04T05:17:02.940Z,92.10
2018-08-04T05:19:31.152Z,93.10
2018-08-04T05:21:59.376Z,92.80
2018-08-04T05:24:27.607Z,92.90
2018-08-04T05:26:55.832Z,92.60
2018-08-04T05:29:24.060Z,93.40
2018-08-04T05:31:52.310Z,93.90
2018-08-04T05:34:20.530Z,93.90
2018-08-04T05:36:48.747Z,94.00
2018-08-04T05:39:16.962Z,93.60
2018-08-04T05:41:45.161Z,94.10
2018-08-04T05:44:13.381Z,94.60
2018-08-04T05:46:41.597Z,94.90
2018-08-04T05:49:09.841Z,95.70
2018-08-04T05:51:38.146Z,95.60
2018-08-04T05:54:06.500Z,95.80
2018-08-04T05:56:34.723Z,95.40
2018-08-04T05:59:02.924Z,96.30
2018-08-04T06:01:31.149Z,95.70
2018-08-04T06:08:55.338Z,98.10
2018-08-04T06:11:23.570Z,98.80
2018-08-04T06:13:51.860Z,98.30
2018-08-04T06:16:20.106Z,98.40
2018-08-04T06:18:48.335Z,98.70
2018-08-04T06:21:17.575Z,98.30
2018-08-04T06:23:45.807Z,98.70
2018-08-04T06:26:14.079Z,97.90
2018-08-04T06:28:42.271Z,98.30
2018-08-04T06:31:10.460Z,97.80
2018-08-04T06:33:38.689Z,98.10
2018-08-04T06:36:06.910Z,98.00
2018-08-04T06:38:35.139Z,97.30
2018-08-04T06:41:03.327Z,97.60
2018-08-04T06:43:31.554Z,98.40
2018-08-04T06:45:59.798Z,98.20
2018-08-04T06:48:28.018Z,96.30
2018-08-04T06:50:56.249Z,95.30
2018-08-04T06:53:24.494Z,95.50
2018-08-04T06:55:52.741Z,95.10
2018-08-04T06:58:21.098Z,94.20
2018-08-04T07:00:49.258Z,93.90
2018-08-04T07:05:45.477Z,93.70
2018-08-04T07:08:13.696Z,94.10
2018-08-04T07:10:41.918Z,94.90
2018-08-04T07:13:10.154Z,95.20
2018-08-04T07:15:38.391Z,95.80
2018-08-04T07:18:06.618Z,96.60
2018-08-04T07:20:34.807Z,97.20
2018-08-04T07:23:03.130Z,97.90
2018-08-04T07:25:31.326Z,98.90
2018-08-04T07:27:59.561Z,98.00
2018-08-04T07:30:27.870Z,97.50
2018-08-04T07:32:56.145Z,96.70
2018-08-04T07:35:24.396Z,97.10
2018-08-04T07:37:52.602Z,96.80
2018-08-04T07:40:20.923Z,96.60
2018-08-04T07:42:49.131Z,96.40
2018-08-04T07:45:17.384Z,95.30
2018-08-04T07:47:46.058Z,95.50
2018-08-04T07:50:14.339Z,95.80
2018-08-04T07:52:42.609Z,96.70
2018-08-04T08:00:07.765Z,98.70
2018-08-04T08:02:36.002Z,98.40
2018-08-04T08:05:04.363Z,98.90
2018-08-04T08:07:32.531Z,98.60
2018-08-04T08:10:00.746Z,98.20
2018-08-04T08:12:29.007Z,98.10
2018-08-04T08:14:57.282Z,98.30
2018-08-04T08:17:25.535Z,97.90
2018-08-04T08:19:53.762Z,98.70
2018-08-04T08:22:32.100Z,98.80
2018-08-04T08:25:00.345Z,98.10
2018-08-04T08:27:28.607Z,98.00
2018-08-04T08:29:56.832Z,97.80
2018-08-04T08:32:25.060Z,97.40
2018-08-04T08:37:21.313Z,96.20
2018-08-04T08:39:49.587Z,94.70
2018-08-04T08:42:17.817Z,95.00
2018-08-04T08:44:46.071Z,94.60
2018-08-04T08:47:14.407Z,94.40
2018-08-04T08:49:42.600Z,93.40
2018-08-04T08:52:10.877Z,93.20
2018-08-04T08:54:39.098Z,93.30
2018-08-04T08:57:07.317Z,92.90
2018-08-04T08:59:35.556Z,92.70
2018-08-04T09:02:03.822Z,91.50
2018-08-04T09:04:32.106Z,91.80
2018-08-04T09:07:00.325Z,91.10
2018-08-04T09:09:28.543Z,91.00
2018-08-04T09:11:56.791Z,90.80
2018-08-04T09:14:25.003Z,90.10
2018-08-04T09:16:53.253Z,89.30
2018-08-04T09:19:21.499Z,88.20
2018-08-04T09:21:49.783Z,84.80
2018-08-04T09:24:18.007Z,84.20
2018-08-04T09:26:46.245Z,84.40
2018-08-04T09:29:14.478Z,84.40
2018-08-04T09:31:42.767Z,82.90
2018-08-04T09:36:38.974Z,81.40
2018-08-04T09:39:09.528Z,81.80
2018-08-04T09:41:37.982Z,82.10
2018-08-04T09:44:06.289Z,78.60
2018-08-04T09:46:34.532Z,79.10
2018-08-04T09:49:02.895Z,76.60
2018-08-04T09:51:31.134Z,75.70
2018-08-04T09:53:59.386Z,75.80
2018-08-04T09:56:27.630Z,76.20
2018-08-04T09:58:55.845Z,77.30
2018-08-04T10:01:29.684Z,76.50
2018-08-04T10:03:57.913Z,74.40
2018-08-04T10:06:26.425Z,74.10
2018-08-04T10:08:54.661Z,72.60
2018-08-04T10:11:22.934Z,72.00
2018-08-04T10:13:51.162Z,72.40
2018-08-04T10:16:19.390Z,71.10
2018-08-04T10:18:47.693Z,71.70
2018-08-04T10:21:16.215Z,71.50
2018-08-04T10:23:44.461Z,71.80
2018-08-04T10:26:12.689Z,72.50
2018-08-04T10:28:40.893Z,69.50
2018-08-04T10:33:37.406Z,69.50
2018-08-04T10:36:05.782Z,70.50
2018-08-04T10:38:34.043Z,68.30
2018-08-04T10:41:02.273Z,68.50
2018-08-04T10:43:30.522Z,67.20
2018-08-04T10:48:26.785Z,66.80
2018-08-04T10:50:55.534Z,65.60
2018-08-04T10:53:23.763Z,66.10
2018-08-04T10:55:52.037Z,65.40
2018-08-04T10:58:20.324Z,65.50
2018-08-04T11:00:48.605Z,64.60
2018-08-04T11:03:16.836Z,64.20
2018-08-04T11:05:45.058Z,62.40
2018-08-04T11:08:13.263Z,61.50
2018-08-04T11:10:41.554Z,62.00
2018-08-04T11:13:09.781Z,61.40
2018-08-04T11:15:38.004Z,60.60
2018-08-04T21:02:50.917Z,99.90
2018-08-04T21:05:19.159Z,99.90
2018-08-04T21:07:47.503Z,99.90
2018-08-04T21:10:15.729Z,99.90
2018-08-04T21:12:43.998Z,99.90
2018-08-04T21:15:12.241Z,99.90
2018-08-04T21:17:40.480Z,99.90
2018-08-04T21:20:08.708Z,99.90
2018-08-04T21:22:36.960Z,99.90
2018-08-04T21:25:05.324Z,99.90
2018-08-04T21:27:33.579Z,99.90
2018-08-04T21:30:01.832Z,99.90
2018-08-04T21:32:30.063Z,99.90
2018-08-04T21:34:58.316Z,99.90
2018-08-04T21:37:26.542Z,99.90
2018-08-04T21:39:54.815Z,99.90
2018-08-04T21:42:23.054Z,99.90
2018-08-04T21:44:51.299Z,99.90
2018-08-04T21:47:19.527Z,99.90
2018-08-04T21:49:47.797Z,99.90
2018-08-04T21:52:16.019Z,99.90
2018-08-04T21:54:44.390Z,99.90
2018-08-04T21:57:12.594Z,99.90
2018-08-04T21:59:40.841Z,99.90
2018-08-04T22:02:09.260Z,99.90
2018-08-04T22:04:37.377Z,99.90
2018-08-04T22:07:43.479Z,99.90
2018-08-04T22:10:12.425Z,99.90
2018-08-04T22:12:41.423Z,99.90
2018-08-04T22:17:38.862Z,99.90
2018-08-04T22:20:08.734Z,99.90
2018-08-04T22:22:37.346Z,99.90
2018-08-04T22:25:06.652Z,99.90
2018-08-04T22:30:02.861Z,99.90
2018-08-04T22:32:31.109Z,99.90
2018-08-04T22:34:59.365Z,99.90
2018-08-04T22:37:27.608Z,99.90
2018-08-04T22:39:55.914Z,99.90
2018-08-04T22:42:24.158Z,99.90
2018-08-04T22:44:59.664Z,99.90
2018-08-04T22:47:27.944Z,99.90
2018-08-04T22:49:56.165Z,99.90
2018-08-04T22:52:24.418Z,99.90
2018-08-04T22:54:52.652Z,99.90
2018-08-04T22:57:20.965Z,99.90
2018-08-04T22:59:49.211Z,99.90
2018-08-04T23:02:17.426Z,99.90
2018-08-04T23:04:45.675Z,99.90
2018-08-04T23:07:13.921Z,99.90
2018-08-04T23:09:42.174Z,99.90
2018-08-04T23:12:10.429Z,99.90
2018-08-04T23:14:38.647Z,99.90
2018-08-04T23:17:06.894Z,99.90
2018-08-04T23:19:35.158Z,99.90
2018-08-04T23:22:03.384Z,99.90
2018-08-04T23:24:31.680Z,99.90
2018-08-04T23:26:59.921Z,99.90
2018-08-04T23:29:28.124Z,99.90
2018-08-04T23:31:56.360Z,99.90
2018-08-04T23:34:24.590Z,99.90
2018-08-04T23:39:20.870Z,99.90
2018-08-04T23:41:49.125Z,99.90
2018-08-04T23:44:17.331Z,99.90
2018-08-04T23:49:13.532Z,99.90
2018-08-04T23:51:41.821Z,99.90
2018-08-04T23:54:10.112Z,99.90
2018-08-04T23:56:38.434Z,99.90
2018-08-04T23:59:06.658Z,99.90
